sensor_id;sensor_type;location;lat;lon;timestamp;P1;durP1;ratioP1;P2;durP2;ratioP2
2838;SDS011;1427;48.510;9.060;2024-01-07T00:12:37;50.03;;;5.10;;
2838;SDS011;1427;48.510;9.060;2024-01-07T00:15:05;46.03;;;2.83;;
2838;SDS011;1427;48.510;9.060;2024-01-07T00:17:34;46.07;;;2.80;;
2838;SDS011;1427;48.510;9.060;2024-01-07T00:20:02;55.03;;;3.10;;
2838;SDS011;1427;48.510;9.060;2024-01-07T00:22:31;49.70;;;3.30;;
2838;SDS011;1427;48.510;9.060;2024-01-07T00:24:59;47.90;;;3.77;;
2838;SDS011;1427;48.510;9.060;2024-01-07T00:27:27;45.87;;;2.43;;
2838;SDS011;1427;48.510;9.060;2024-01-07T00:29:57;49.30;;;3.90;;
2838;SDS011;1427;48.510;9.060;2024-01-07T00:32:25;47.20;;;2.30;;
2838;SDS011;1427;48.510;9.060;2024-01-07T00:34:53;46.37;;;3.03;;
2838;SDS011;1427;48.510;9.060;2024-01-07T00:37:21;49.27;;;3.10;;
2838;SDS011;1427;48.510;9.060;2024-01-07T00:39:50;51.40;;;3.37;;
2838;SDS011;1427;48.510;9.060;2024-01-07T00:42:18;46.70;;;3.00;;
2838;SDS011;1427;48.510;9.060;2024-01-07T00:44:46;47.70;;;3.83;;
2838;SDS011;1427;48.510;9.060;2024-01-07T00:47:15;48.80;;;4.23;;
2838;SDS011;1427;48.510;9.060;2024-01-07T00:49:43;46.87;;;2.97;;
2838;SDS011;1427;48.510;9.060;2024-01-07T00:52:11;45.47;;;2.87;;
2838;SDS011;1427;48.510;9.060;2024-01-07T00:54:39;45.90;;;2.57;;
2838;SDS011;1427;48.510;9.060;2024-01-07T00:57:07;47.90;;;4.00;;
2838;SDS011;1427;48.510;9.060;2024-01-07T00:59:37;51.17;;;3.33;;
2838;SDS011;1427;48.510;9.060;2024-01-07T01:02:05;47.00;;;2.93;;
2838;SDS011;1427;48.510;9.060;2024-01-07T01:04:35;47.57;;;2.70;;
2838;SDS011;1427;48.510;9.060;2024-01-07T01:07:06;51.03;;;2.50;;
2838;SDS011;1427;48.510;9.060;2024-01-07T01:09:34;51.00;;;3.17;;
2838;SDS011;1427;48.510;9.060;2024-01-07T01:12:02;48.90;;;2.77;;
2838;SDS011;1427;48.510;9.060;2024-01-07T01:14:31;47.50;;;3.13;;
2838;SDS011;1427;48.510;9.060;2024-01-07T01:16:59;47.73;;;2.77;;
2838;SDS011;1427;48.510;9.060;2024-01-07T01:19:27;50.63;;;3.67;;
2838;SDS011;1427;48.510;9.060;2024-01-07T01:21:56;46.77;;;2.40;;
2838;SDS011;1427;48.510;9.060;2024-01-07T01:24:24;46.20;;;2.63;;
2838;SDS011;1427;48.510;9.060;2024-01-07T01:26:53;47.97;;;3.17;;
2838;SDS011;1427;48.510;9.060;2024-01-07T01:29:21;48.00;;;3.23;;
2838;SDS011;1427;48.510;9.060;2024-01-07T01:31:49;46.20;;;2.90;;
2838;SDS011;1427;48.510;9.060;2024-01-07T01:34:17;53.50;;;4.20;;
2838;SDS011;1427;48.510;9.060;2024-01-07T01:36:45;47.27;;;2.70;;
2838;SDS011;1427;48.510;9.060;2024-01-07T01:39:15;46.40;;;3.07;;
2838;SDS011;1427;48.510;9.060;2024-01-07T01:41:43;45.67;;;2.20;;
2838;SDS011;1427;48.510;9.060;2024-01-07T01:44:11;46.27;;;3.00;;
2838;SDS011;1427;48.510;9.060;2024-01-07T01:46:39;48.77;;;4.37;;
2838;SDS011;1427;48.510;9.060;2024-01-07T01:49:07;46.87;;;2.60;;
2838;SDS011;1427;48.510;9.060;2024-01-07T01:51:36;48.53;;;3.50;;
2838;SDS011;1427;48.510;9.060;2024-01-07T01:54:04;49.70;;;4.27;;
2838;SDS011;1427;48.510;9.060;2024-01-07T01:56:34;48.47;;;3.10;;
2838;SDS011;1427;48.510;9.060;2024-01-07T01:59:02;50.00;;;2.90;;
2838;SDS011;1427;48.510;9.060;2024-01-07T02:01:30;46.63;;;3.00;;
2838;SDS011;1427;48.510;9.060;2024-01-07T02:03:58;46.10;;;2.83;;
2838;SDS011;1427;48.510;9.060;2024-01-07T02:06:26;47.57;;;3.03;;
2838;SDS011;1427;48.510;9.060;2024-01-07T02:08:55;46.60;;;3.07;;
2838;SDS011;1427;48.510;9.060;2024-01-07T02:11:23;47.27;;;2.80;;
2838;SDS011;1427;48.510;9.060;2024-01-07T02:13:53;46.43;;;3.03;;
2838;SDS011;1427;48.510;9.060;2024-01-07T02:16:22;48.70;;;3.37;;
2838;SDS011;1427;48.510;9.060;2024-01-07T02:18:50;46.70;;;2.50;;
2838;SDS011;1427;48.510;9.060;2024-01-07T02:21:18;48.80;;;2.33;;
2838;SDS011;1427;48.510;9.060;2024-01-07T02:23:46;47.50;;;3.23;;
2838;SDS011;1427;48.510;9.060;2024-01-07T02:26:15;52.47;;;2.37;;
2838;SDS011;1427;48.510;9.060;2024-01-07T02:28:44;46.57;;;2.77;;
2838;SDS011;1427;48.510;9.060;2024-01-07T02:31:12;47.00;;;3.17;;
2838;SDS011;1427;48.510;9.060;2024-01-07T02:33:40;46.20;;;3.17;;
2838;SDS011;1427;48.510;9.060;2024-01-07T02:36:08;50.83;;;3.20;;
2838;SDS011;1427;48.510;9.060;2024-01-07T02:38:36;52.80;;;3.50;;
2838;SDS011;1427;48.510;9.060;2024-01-07T02:41:04;49.10;;;3.10;;
2838;SDS011;1427;48.510;9.060;2024-01-07T02:43:34;48.17;;;2.30;;
2838;SDS011;1427;48.510;9.060;2024-01-07T02:46:02;49.27;;;3.57;;
2838;SDS011;1427;48.510;9.060;2024-01-07T02:48:30;51.70;;;2.80;;
2838;SDS011;1427;48.510;9.060;2024-01-07T02:50:58;49.43;;;4.17;;
2838;SDS011;1427;48.510;9.060;2024-01-07T02:53:26;48.57;;;3.00;;
2838;SDS011;1427;48.510;9.060;2024-01-07T02:55:54;47.30;;;2.63;;
2838;SDS011;1427;48.510;9.060;2024-01-07T02:58:22;48.57;;;3.80;;
2838;SDS011;1427;48.510;9.060;2024-01-07T03:00:52;51.53;;;2.37;;
2838;SDS011;1427;48.510;9.060;2024-01-07T03:03:20;47.83;;;2.40;;
2838;SDS011;1427;48.510;9.060;2024-01-07T03:05:48;49.30;;;3.80;;
2838;SDS011;1427;48.510;9.060;2024-01-07T03:08:16;45.30;;;2.47;;
2838;SDS011;1427;48.510;9.060;2024-01-07T03:10:44;49.57;;;3.80;;
2838;SDS011;1427;48.510;9.060;2024-01-07T03:13:12;46.70;;;2.70;;
2838;SDS011;1427;48.510;9.060;2024-01-07T03:15:40;45.83;;;2.80;;
2838;SDS011;1427;48.510;9.060;2024-01-07T03:18:10;46.07;;;2.77;;
2838;SDS011;1427;48.510;9.060;2024-01-07T03:20:38;48.97;;;3.50;;
2838;SDS011;1427;48.510;9.060;2024-01-07T03:23:06;47.30;;;3.47;;
2838;SDS011;1427;48.510;9.060;2024-01-07T03:25:34;46.47;;;2.80;;
2838;SDS011;1427;48.510;9.060;2024-01-07T03:28:02;47.40;;;3.30;;
2838;SDS011;1427;48.510;9.060;2024-01-07T03:30:31;47.93;;;3.20;;
2838;SDS011;1427;48.510;9.060;2024-01-07T03:32:59;46.70;;;2.67;;
2838;SDS011;1427;48.510;9.060;2024-01-07T03:35:29;48.40;;;3.10;;
2838;SDS011;1427;48.510;9.060;2024-01-07T03:37:57;49.53;;;3.70;;
2838;SDS011;1427;48.510;9.060;2024-01-07T03:40:25;48.33;;;2.97;;
2838;SDS011;1427;48.510;9.060;2024-01-07T03:42:53;45.27;;;2.07;;
2838;SDS011;1427;48.510;9.060;2024-01-07T03:45:21;48.00;;;4.80;;
2838;SDS011;1427;48.510;9.060;2024-01-07T03:47:49;45.50;;;2.20;;
2838;SDS011;1427;48.510;9.060;2024-01-07T03:50:18;45.00;;;1.87;;
2838;SDS011;1427;48.510;9.060;2024-01-07T03:52:47;45.40;;;2.37;;
2838;SDS011;1427;48.510;9.060;2024-01-07T03:55:15;46.73;;;2.90;;
2838;SDS011;1427;48.510;9.060;2024-01-07T03:57:44;46.83;;;3.70;;
2838;SDS011;1427;48.510;9.060;2024-01-07T04:00:12;47.30;;;2.67;;
2838;SDS011;1427;48.510;9.060;2024-01-07T04:02:41;46.00;;;3.00;;
2838;SDS011;1427;48.510;9.060;2024-01-07T04:05:10;47.20;;;2.93;;
2838;SDS011;1427;48.510;9.060;2024-01-07T04:07:39;54.80;;;3.40;;
2838;SDS011;1427;48.510;9.060;2024-01-07T04:10:09;50.43;;;4.67;;
2838;SDS011;1427;48.510;9.060;2024-01-07T04:12:37;50.07;;;3.27;;
2838;SDS011;1427;48.510;9.060;2024-01-07T04:15:05;47.20;;;2.67;;
2838;SDS011;1427;48.510;9.060;2024-01-07T04:17:34;47.00;;;3.13;;
2838;SDS011;1427;48.510;9.060;2024-01-07T04:20:02;46.57;;;2.50;;
2838;SDS011;1427;48.510;9.060;2024-01-07T04:22:30;50.10;;;2.77;;
2838;SDS011;1427;48.510;9.060;2024-01-07T04:24:59;48.17;;;2.53;;
2838;SDS011;1427;48.510;9.060;2024-01-07T04:27:28;47.90;;;2.73;;
2838;SDS011;1427;48.510;9.060;2024-01-07T04:29:56;49.47;;;3.23;;
2838;SDS011;1427;48.510;9.060;2024-01-07T04:32:24;47.70;;;3.23;;
2838;SDS011;1427;48.510;9.060;2024-01-07T04:34:52;49.07;;;3.20;;
2838;SDS011;1427;48.510;9.060;2024-01-07T04:37:20;45.77;;;2.70;;
2838;SDS011;1427;48.510;9.060;2024-01-07T04:39:48;50.77;;;2.53;;
2838;SDS011;1427;48.510;9.060;2024-01-07T04:42:16;49.10;;;3.23;;
2838;SDS011;1427;48.510;9.060;2024-01-07T04:44:46;48.77;;;3.23;;
2838;SDS011;1427;48.510;9.060;2024-01-07T04:47:25;52.63;;;4.50;;
2838;SDS011;1427;48.510;9.060;2024-01-07T04:49:54;48.07;;;4.20;;
2838;SDS011;1427;48.510;9.060;2024-01-07T04:52:22;46.77;;;2.90;;
2838;SDS011;1427;48.510;9.060;2024-01-07T04:54:51;48.70;;;4.17;;
2838;SDS011;1427;48.510;9.060;2024-01-07T04:57:20;47.80;;;3.10;;
2838;SDS011;1427;48.510;9.060;2024-01-07T04:59:50;46.53;;;2.97;;
2838;SDS011;1427;48.510;9.060;2024-01-07T05:02:18;47.23;;;3.27;;
2838;SDS011;1427;48.510;9.060;2024-01-07T05:04:47;45.67;;;2.27;;
2838;SDS011;1427;48.510;9.060;2024-01-07T05:07:15;46.70;;;3.03;;
2838;SDS011;1427;48.510;9.060;2024-01-07T05:09:43;47.97;;;3.37;;
2838;SDS011;1427;48.510;9.060;2024-01-07T05:12:11;47.60;;;4.00;;
2838;SDS011;1427;48.510;9.060;2024-01-07T05:14:40;49.23;;;3.40;;
2838;SDS011;1427;48.510;9.060;2024-01-07T05:17:10;46.73;;;2.40;;
2838;SDS011;1427;48.510;9.060;2024-01-07T05:19:39;47.27;;;3.63;;
2838;SDS011;1427;48.510;9.060;2024-01-07T05:22:08;46.20;;;2.90;;
2838;SDS011;1427;48.510;9.060;2024-01-07T05:24:36;47.97;;;3.90;;
2838;SDS011;1427;48.510;9.060;2024-01-07T05:27:05;47.50;;;2.60;;
2838;SDS011;1427;48.510;9.060;2024-01-07T05:29:33;45.80;;;2.47;;
2838;SDS011;1427;48.510;9.060;2024-01-07T05:32:01;46.93;;;2.70;;
2838;SDS011;1427;48.510;9.060;2024-01-07T05:34:31;51.07;;;3.60;;
2838;SDS011;1427;48.510;9.060;2024-01-07T05:37:00;46.73;;;2.60;;
2838;SDS011;1427;48.510;9.060;2024-01-07T05:39:28;47.70;;;2.93;;
2838;SDS011;1427;48.510;9.060;2024-01-07T05:41:56;47.90;;;2.97;;
2838;SDS011;1427;48.510;9.060;2024-01-07T05:44:24;46.30;;;3.23;;
2838;SDS011;1427;48.510;9.060;2024-01-07T05:46:55;46.50;;;3.10;;
2838;SDS011;1427;48.510;9.060;2024-01-07T05:49:23;46.00;;;2.60;;
2838;SDS011;1427;48.510;9.060;2024-01-07T05:51:53;51.23;;;2.73;;
2838;SDS011;1427;48.510;9.060;2024-01-07T05:54:21;46.67;;;2.93;;
2838;SDS011;1427;48.510;9.060;2024-01-07T05:56:49;46.10;;;2.30;;
2838;SDS011;1427;48.510;9.060;2024-01-07T05:59:17;46.80;;;2.73;;
2838;SDS011;1427;48.510;9.060;2024-01-07T06:01:45;46.73;;;2.77;;
2838;SDS011;1427;48.510;9.060;2024-01-07T06:04:14;46.00;;;2.67;;
2838;SDS011;1427;48.510;9.060;2024-01-07T06:06:42;67.57;;;2.80;;
2838;SDS011;1427;48.510;9.060;2024-01-07T06:09:11;46.13;;;2.40;;
2838;SDS011;1427;48.510;9.060;2024-01-07T06:11:39;48.70;;;3.00;;
2838;SDS011;1427;48.510;9.060;2024-01-07T06:14:07;46.70;;;3.20;;
2838;SDS011;1427;48.510;9.060;2024-01-07T06:16:35;56.23;;;3.63;;
2838;SDS011;1427;48.510;9.060;2024-01-07T06:19:03;50.53;;;3.23;;
2838;SDS011;1427;48.510;9.060;2024-01-07T06:21:33;46.97;;;3.03;;
2838;SDS011;1427;48.510;9.060;2024-01-07T06:24:01;47.87;;;2.70;;
2838;SDS011;1427;48.510;9.060;2024-01-07T06:26:32;49.73;;;2.57;;
2838;SDS011;1427;48.510;9.060;2024-01-07T06:29:00;52.43;;;2.60;;
2838;SDS011;1427;48.510;9.060;2024-01-07T06:31:28;46.93;;;3.20;;
2838;SDS011;1427;48.510;9.060;2024-01-07T06:33:56;45.80;;;2.57;;
2838;SDS011;1427;48.510;9.060;2024-01-07T06:36:25;47.43;;;2.87;;
2838;SDS011;1427;48.510;9.060;2024-01-07T06:38:53;47.00;;;2.87;;
2838;SDS011;1427;48.510;9.060;2024-01-07T06:41:21;47.20;;;3.00;;
2838;SDS011;1427;48.510;9.060;2024-01-07T06:43:51;47.77;;;2.97;;
2838;SDS011;1427;48.510;9.060;2024-01-07T06:46:23;47.57;;;2.67;;
2838;SDS011;1427;48.510;9.060;2024-01-07T06:48:51;45.97;;;2.97;;
2838;SDS011;1427;48.510;9.060;2024-01-07T06:51:19;50.47;;;2.80;;
2838;SDS011;1427;48.510;9.060;2024-01-07T06:53:47;50.77;;;3.97;;
2838;SDS011;1427;48.510;9.060;2024-01-07T06:56:16;48.57;;;3.03;;
2838;SDS011;1427;48.510;9.060;2024-01-07T06:58:45;46.20;;;3.03;;
2838;SDS011;1427;48.510;9.060;2024-01-07T07:01:14;49.27;;;3.50;;
2838;SDS011;1427;48.510;9.060;2024-01-07T07:03:47;47.47;;;3.57;;
2838;SDS011;1427;48.510;9.060;2024-01-07T07:06:15;50.27;;;3.60;;
2838;SDS011;1427;48.510;9.060;2024-01-07T07:08:45;48.87;;;3.07;;
2838;SDS011;1427;48.510;9.060;2024-01-07T07:11:13;46.80;;;2.93;;
2838;SDS011;1427;48.510;9.060;2024-01-07T07:13:41;48.20;;;3.00;;
2838;SDS011;1427;48.510;9.060;2024-01-07T07:16:09;46.77;;;3.10;;
2838;SDS011;1427;48.510;9.060;2024-01-07T07:18:40;56.80;;;3.10;;
2838;SDS011;1427;48.510;9.060;2024-01-07T07:21:08;46.00;;;2.63;;
2838;SDS011;1427;48.510;9.060;2024-01-07T07:23:36;46.53;;;2.80;;
2838;SDS011;1427;48.510;9.060;2024-01-07T07:26:04;45.47;;;2.77;;
2838;SDS011;1427;48.510;9.060;2024-01-07T07:28:33;51.13;;;2.80;;
2838;SDS011;1427;48.510;9.060;2024-01-07T07:31:01;48.50;;;2.53;;
2838;SDS011;1427;48.510;9.060;2024-01-07T07:33:29;46.80;;;2.57;;
2838;SDS011;1427;48.510;9.060;2024-01-07T07:36:00;46.70;;;2.97;;
2838;SDS011;1427;48.510;9.060;2024-01-07T07:38:28;52.50;;;5.73;;
2838;SDS011;1427;48.510;9.060;2024-01-07T07:40:56;50.40;;;5.07;;
2838;SDS011;1427;48.510;9.060;2024-01-07T07:43:25;47.13;;;3.23;;
2838;SDS011;1427;48.510;9.060;2024-01-07T07:45:53;53.50;;;3.97;;
2838;SDS011;1427;48.510;9.060;2024-01-07T07:48:21;51.00;;;8.53;;
2838;SDS011;1427;48.510;9.060;2024-01-07T07:50:49;49.70;;;7.40;;
2838;SDS011;1427;48.510;9.060;2024-01-07T07:53:19;46.87;;;4.40;;
2838;SDS011;1427;48.510;9.060;2024-01-07T07:55:47;53.70;;;9.10;;
2838;SDS011;1427;48.510;9.060;2024-01-07T07:58:16;51.03;;;9.90;;
2838;SDS011;1427;48.510;9.060;2024-01-07T08:00:44;54.40;;;9.70;;
2838;SDS011;1427;48.510;9.060;2024-01-07T08:03:12;53.13;;;10.67;;
2838;SDS011;1427;48.510;9.060;2024-01-07T08:05:42;47.70;;;3.87;;
2838;SDS011;1427;48.510;9.060;2024-01-07T08:08:10;47.67;;;4.73;;
2838;SDS011;1427;48.510;9.060;2024-01-07T08:10:39;49.60;;;7.87;;
2838;SDS011;1427;48.510;9.060;2024-01-07T08:13:07;50.03;;;6.70;;
2838;SDS011;1427;48.510;9.060;2024-01-07T08:15:36;48.30;;;6.30;;
2838;SDS011;1427;48.510;9.060;2024-01-07T08:18:04;49.20;;;6.00;;
2838;SDS011;1427;48.510;9.060;2024-01-07T08:20:33;47.37;;;5.90;;
2838;SDS011;1427;48.510;9.060;2024-01-07T08:23:01;50.00;;;6.97;;
2838;SDS011;1427;48.510;9.060;2024-01-07T08:25:29;51.70;;;7.70;;
2838;SDS011;1427;48.510;9.060;2024-01-07T08:27:59;48.60;;;5.67;;
2838;SDS011;1427;48.510;9.060;2024-01-07T08:30:28;50.43;;;5.43;;
2838;SDS011;1427;48.510;9.060;2024-01-07T08:32:56;47.70;;;4.77;;
2838;SDS011;1427;48.510;9.060;2024-01-07T08:35:24;48.20;;;5.90;;
2838;SDS011;1427;48.510;9.060;2024-01-07T08:37:53;48.27;;;4.90;;
2838;SDS011;1427;48.510;9.060;2024-01-07T08:40:21;51.17;;;7.20;;
2838;SDS011;1427;48.510;9.060;2024-01-07T08:42:49;55.70;;;5.10;;
2838;SDS011;1427;48.510;9.060;2024-01-07T08:45:19;58.67;;;5.63;;
2838;SDS011;1427;48.510;9.060;2024-01-07T08:47:47;47.40;;;5.10;;
2838;SDS011;1427;48.510;9.060;2024-01-07T08:50:15;46.87;;;4.87;;
2838;SDS011;1427;48.510;9.060;2024-01-07T08:52:43;48.77;;;6.37;;
2838;SDS011;1427;48.510;9.060;2024-01-07T08:55:12;48.17;;;4.97;;
2838;SDS011;1427;48.510;9.060;2024-01-07T08:57:42;46.90;;;5.17;;
2838;SDS011;1427;48.510;9.060;2024-01-07T09:00:12;51.80;;;5.93;;
2838;SDS011;1427;48.510;9.060;2024-01-07T09:02:42;47.27;;;5.10;;
2838;SDS011;1427;48.510;9.060;2024-01-07T09:05:10;46.50;;;4.53;;
2838;SDS011;1427;48.510;9.060;2024-01-07T09:07:40;57.13;;;6.70;;
2838;SDS011;1427;48.510;9.060;2024-01-07T09:10:08;50.57;;;6.10;;
2838;SDS011;1427;48.510;9.060;2024-01-07T09:12:37;48.27;;;6.10;;
2838;SDS011;1427;48.510;9.060;2024-01-07T09:15:06;48.00;;;6.00;;
2838;SDS011;1427;48.510;9.060;2024-01-07T09:17:35;47.70;;;5.77;;
2838;SDS011;1427;48.510;9.060;2024-01-07T09:20:06;51.60;;;5.70;;
2838;SDS011;1427;48.510;9.060;2024-01-07T09:22:35;47.83;;;5.63;;
2838;SDS011;1427;48.510;9.060;2024-01-07T09:25:04;47.80;;;5.00;;
2838;SDS011;1427;48.510;9.060;2024-01-07T09:27:33;49.40;;;5.60;;
2838;SDS011;1427;48.510;9.060;2024-01-07T09:30:01;48.00;;;5.77;;
2838;SDS011;1427;48.510;9.060;2024-01-07T09:32:30;46.87;;;4.47;;
2838;SDS011;1427;48.510;9.060;2024-01-07T09:35:03;48.87;;;6.50;;
2838;SDS011;1427;48.510;9.060;2024-01-07T09:38:07;53.70;;;5.60;;
2838;SDS011;1427;48.510;9.060;2024-01-07T09:40:56;48.90;;;6.67;;
2838;SDS011;1427;48.510;9.060;2024-01-07T09:43:27;47.33;;;4.80;;
2838;SDS011;1427;48.510;9.060;2024-01-07T09:46:04;58.60;;;6.47;;
2838;SDS011;1427;48.510;9.060;2024-01-07T09:48:32;53.43;;;5.37;;
2838;SDS011;1427;48.510;9.060;2024-01-07T09:51:05;48.37;;;5.93;;
2838;SDS011;1427;48.510;9.060;2024-01-07T09:54:02;46.70;;;4.63;;
2838;SDS011;1427;48.510;9.060;2024-01-07T09:56:49;48.03;;;5.10;;
2838;SDS011;1427;48.510;9.060;2024-01-07T09:59:25;49.97;;;4.70;;
2838;SDS011;1427;48.510;9.060;2024-01-07T10:02:16;47.37;;;4.47;;
2838;SDS011;1427;48.510;9.060;2024-01-07T10:04:53;48.30;;;5.33;;
2838;SDS011;1427;48.510;9.060;2024-01-07T10:07:34;48.03;;;7.07;;
2838;SDS011;1427;48.510;9.060;2024-01-07T10:10:18;51.10;;;9.80;;
2838;SDS011;1427;48.510;9.060;2024-01-07T10:12:54;52.87;;;9.90;;
2838;SDS011;1427;48.510;9.060;2024-01-07T10:15:47;50.20;;;5.40;;
2838;SDS011;1427;48.510;9.060;2024-01-07T10:18:24;50.50;;;6.77;;
2838;SDS011;1427;48.510;9.060;2024-01-07T10:21:36;48.90;;;8.13;;
2838;SDS011;1427;48.510;9.060;2024-01-07T10:24:27;47.90;;;5.83;;
2838;SDS011;1427;48.510;9.060;2024-01-07T10:27:12;47.57;;;5.20;;
2838;SDS011;1427;48.510;9.060;2024-01-07T10:30:14;47.80;;;4.70;;
2838;SDS011;1427;48.510;9.060;2024-01-07T10:32:48;46.47;;;4.13;;
2838;SDS011;1427;48.510;9.060;2024-01-07T10:35:24;46.67;;;4.50;;
2838;SDS011;1427;48.510;9.060;2024-01-07T10:37:57;47.30;;;5.20;;
2838;SDS011;1427;48.510;9.060;2024-01-07T10:40:30;52.37;;;6.03;;
2838;SDS011;1427;48.510;9.060;2024-01-07T10:43:04;48.07;;;5.30;;
2838;SDS011;1427;48.510;9.060;2024-01-07T10:45:48;54.17;;;4.37;;
2838;SDS011;1427;48.510;9.060;2024-01-07T10:48:28;46.60;;;4.57;;
2838;SDS011;1427;48.510;9.060;2024-01-07T10:51:07;47.50;;;4.90;;
2838;SDS011;1427;48.510;9.060;2024-01-07T10:53:42;52.67;;;6.93;;
2838;SDS011;1427;48.510;9.060;2024-01-07T10:56:43;50.63;;;5.87;;
2838;SDS011;1427;48.510;9.060;2024-01-07T10:59:38;47.30;;;4.97;;
2838;SDS011;1427;48.510;9.060;2024-01-07T11:02:12;46.77;;;4.70;;
2838;SDS011;1427;48.510;9.060;2024-01-07T11:05:04;46.30;;;4.10;;
2838;SDS011;1427;48.510;9.060;2024-01-07T11:07:39;47.33;;;4.67;;
2838;SDS011;1427;48.510;9.060;2024-01-07T11:10:15;50.33;;;6.53;;
2838;SDS011;1427;48.510;9.060;2024-01-07T11:12:54;47.47;;;5.00;;
2838;SDS011;1427;48.510;9.060;2024-01-07T11:19:02;46.53;;;4.57;;
2838;SDS011;1427;48.510;9.060;2024-01-07T11:21:33;46.57;;;4.47;;
2838;SDS011;1427;48.510;9.060;2024-01-07T11:27:34;47.27;;;4.30;;
2838;SDS011;1427;48.510;9.060;2024-01-07T11:30:18;46.90;;;4.53;;
2838;SDS011;1427;48.510;9.060;2024-01-07T11:33:03;46.83;;;4.40;;
2838;SDS011;1427;48.510;9.060;2024-01-07T11:36:04;47.40;;;5.00;;
2838;SDS011;1427;48.510;9.060;2024-01-07T11:38:42;49.00;;;7.30;;
2838;SDS011;1427;48.510;9.060;2024-01-07T11:41:21;48.97;;;5.60;;
2838;SDS011;1427;48.510;9.060;2024-01-07T11:44:01;47.60;;;5.07;;
2838;SDS011;1427;48.510;9.060;2024-01-07T11:46:39;47.23;;;4.87;;
2838;SDS011;1427;48.510;9.060;2024-01-07T11:49:11;47.03;;;4.77;;
2838;SDS011;1427;48.510;9.060;2024-01-07T11:51:48;46.70;;;4.50;;
2838;SDS011;1427;48.510;9.060;2024-01-07T11:54:22;48.70;;;5.80;;
2838;SDS011;1427;48.510;9.060;2024-01-07T11:56:58;48.50;;;5.70;;
2838;SDS011;1427;48.510;9.060;2024-01-07T11:59:53;47.70;;;5.73;;
2838;SDS011;1427;48.510;9.060;2024-01-07T12:02:23;50.80;;;6.27;;
2838;SDS011;1427;48.510;9.060;2024-01-07T12:05:08;48.47;;;5.90;;
2838;SDS011;1427;48.510;9.060;2024-01-07T12:07:46;47.50;;;5.43;;
2838;SDS011;1427;48.510;9.060;2024-01-07T12:10:15;47.70;;;5.07;;
2838;SDS011;1427;48.510;9.060;2024-01-07T12:12:51;47.13;;;5.07;;
2838;SDS011;1427;48.510;9.060;2024-01-07T12:15:30;47.40;;;5.27;;
2838;SDS011;1427;48.510;9.060;2024-01-07T12:18:09;50.40;;;5.77;;
2838;SDS011;1427;48.510;9.060;2024-01-07T12:20:40;47.33;;;5.17;;
2838;SDS011;1427;48.510;9.060;2024-01-07T12:23:36;47.33;;;5.00;;
2838;SDS011;1427;48.510;9.060;2024-01-07T12:26:26;49.70;;;6.67;;
2838;SDS011;1427;48.510;9.060;2024-01-07T12:29:05;46.87;;;4.87;;
2838;SDS011;1427;48.510;9.060;2024-01-07T12:32:10;50.07;;;6.00;;
2838;SDS011;1427;48.510;9.060;2024-01-07T12:34:50;47.37;;;4.80;;
2838;SDS011;1427;48.510;9.060;2024-01-07T12:37:58;48.10;;;4.93;;
2838;SDS011;1427;48.510;9.060;2024-01-07T12:40:35;48.17;;;4.73;;
2838;SDS011;1427;48.510;9.060;2024-01-07T12:43:10;49.30;;;6.50;;
2838;SDS011;1427;48.510;9.060;2024-01-07T12:45:40;48.13;;;5.40;;
2838;SDS011;1427;48.510;9.060;2024-01-07T12:48:12;49.10;;;5.20;;
2838;SDS011;1427;48.510;9.060;2024-01-07T12:50:48;50.70;;;6.10;;
2838;SDS011;1427;48.510;9.060;2024-01-07T12:53:23;46.93;;;4.90;;
2838;SDS011;1427;48.510;9.060;2024-01-07T12:55:52;51.60;;;5.40;;
2838;SDS011;1427;48.510;9.060;2024-01-07T12:58:28;46.73;;;4.50;;
2838;SDS011;1427;48.510;9.060;2024-01-07T13:00:56;49.13;;;5.97;;
2838;SDS011;1427;48.510;9.060;2024-01-07T13:03:40;47.20;;;5.20;;
2838;SDS011;1427;48.510;9.060;2024-01-07T13:06:11;49.67;;;5.20;;
2838;SDS011;1427;48.510;9.060;2024-01-07T13:08:51;47.23;;;4.83;;
2838;SDS011;1427;48.510;9.060;2024-01-07T13:11:22;47.87;;;5.33;;
2838;SDS011;1427;48.510;9.060;2024-01-07T13:13:52;51.83;;;5.93;;
2838;SDS011;1427;48.510;9.060;2024-01-07T13:16:30;48.87;;;6.67;;
2838;SDS011;1427;48.510;9.060;2024-01-07T13:19:13;48.37;;;6.00;;
2838;SDS011;1427;48.510;9.060;2024-01-07T13:22:10;51.17;;;6.27;;
2838;SDS011;1427;48.510;9.060;2024-01-07T13:24:50;47.60;;;5.63;;
2838;SDS011;1427;48.510;9.060;2024-01-07T13:27:21;47.17;;;5.53;;
2838;SDS011;1427;48.510;9.060;2024-01-07T13:29:54;47.80;;;5.67;;
2838;SDS011;1427;48.510;9.060;2024-01-07T13:32:24;56.58;;;9.13;;
2838;SDS011;1427;48.510;9.060;2024-01-07T13:35:13;60.20;;;9.77;;
2838;SDS011;1427;48.510;9.060;2024-01-07T13:37:57;48.23;;;4.30;;
2838;SDS011;1427;48.510;9.060;2024-01-07T13:40:41;46.17;;;3.90;;
2838;SDS011;1427;48.510;9.060;2024-01-07T13:43:59;47.87;;;5.90;;
2838;SDS011;1427;48.510;9.060;2024-01-07T13:46:45;46.37;;;4.17;;
2838;SDS011;1427;48.510;9.060;2024-01-07T13:49:14;46.93;;;3.80;;
2838;SDS011;1427;48.510;9.060;2024-01-07T13:51:48;45.43;;;2.70;;
2838;SDS011;1427;48.510;9.060;2024-01-07T13:54:20;44.97;;;1.70;;
2838;SDS011;1427;48.510;9.060;2024-01-07T13:57:08;45.23;;;2.43;;
2838;SDS011;1427;48.510;9.060;2024-01-07T13:59:38;45.60;;;1.90;;
2838;SDS011;1427;48.510;9.060;2024-01-07T14:02:07;44.93;;;2.03;;
2838;SDS011;1427;48.510;9.060;2024-01-07T14:04:37;45.17;;;2.23;;
2838;SDS011;1427;48.510;9.060;2024-01-07T14:07:14;45.87;;;2.37;;
2838;SDS011;1427;48.510;9.060;2024-01-07T14:09:56;50.13;;;3.47;;
2838;SDS011;1427;48.510;9.060;2024-01-07T14:13:22;46.20;;;3.13;;
2838;SDS011;1427;48.510;9.060;2024-01-07T14:15:44;45.07;;;1.80;;
2838;SDS011;1427;48.510;9.060;2024-01-07T14:18:13;47.70;;;4.07;;
2838;SDS011;1427;48.510;9.060;2024-01-07T14:20:56;44.90;;;1.83;;
2838;SDS011;1427;48.510;9.060;2024-01-07T14:23:25;45.07;;;2.20;;
2838;SDS011;1427;48.510;9.060;2024-01-07T14:25:58;45.17;;;1.63;;
2838;SDS011;1427;48.510;9.060;2024-01-07T14:28:48;45.90;;;2.77;;
2838;SDS011;1427;48.510;9.060;2024-01-07T14:31:43;45.30;;;2.33;;
2838;SDS011;1427;48.510;9.060;2024-01-07T14:34:25;45.13;;;2.20;;
2838;SDS011;1427;48.510;9.060;2024-01-07T14:37:21;44.67;;;1.90;;
2838;SDS011;1427;48.510;9.060;2024-01-07T14:40:00;44.87;;;1.70;;
2838;SDS011;1427;48.510;9.060;2024-01-07T14:42:34;44.77;;;1.77;;
2838;SDS011;1427;48.510;9.060;2024-01-07T14:45:04;47.10;;;2.67;;
2838;SDS011;1427;48.510;9.060;2024-01-07T14:47:33;45.30;;;2.37;;
2838;SDS011;1427;48.510;9.060;2024-01-07T14:50:04;44.83;;;1.70;;
2838;SDS011;1427;48.510;9.060;2024-01-07T14:52:49;46.00;;;2.37;;
2838;SDS011;1427;48.510;9.060;2024-01-07T14:55:31;45.53;;;3.17;;
2838;SDS011;1427;48.510;9.060;2024-01-07T14:58:14;47.80;;;5.50;;
2838;SDS011;1427;48.510;9.060;2024-01-07T15:01:09;47.13;;;5.83;;
2838;SDS011;1427;48.510;9.060;2024-01-07T15:03:41;47.87;;;6.67;;
2838;SDS011;1427;48.510;9.060;2024-01-07T15:06:12;47.97;;;5.67;;
2838;SDS011;1427;48.510;9.060;2024-01-07T15:08:44;46.40;;;5.00;;
2838;SDS011;1427;48.510;9.060;2024-01-07T15:11:53;48.23;;;6.97;;
2838;SDS011;1427;48.510;9.060;2024-01-07T15:14:42;45.07;;;2.40;;
2838;SDS011;1427;48.510;9.060;2024-01-07T15:17:17;48.97;;;2.00;;
2838;SDS011;1427;48.510;9.060;2024-01-07T15:19:58;48.00;;;3.43;;
2838;SDS011;1427;48.510;9.060;2024-01-07T15:22:29;59.08;;;6.40;;
2838;SDS011;1427;48.510;9.060;2024-01-07T15:25:18;59.45;;;6.47;;
2838;SDS011;1427;48.510;9.060;2024-01-07T15:27:53;47.40;;;4.30;;
2838;SDS011;1427;48.510;9.060;2024-01-07T15:30:55;62.30;;;6.85;;
2838;SDS011;1427;48.510;9.060;2024-01-07T15:33:47;45.90;;;3.07;;
2838;SDS011;1427;48.510;9.060;2024-01-07T15:36:28;45.07;;;2.10;;
2838;SDS011;1427;48.510;9.060;2024-01-07T15:39:01;44.73;;;1.60;;
2838;SDS011;1427;48.510;9.060;2024-01-07T15:41:36;59.45;;;6.50;;
2838;SDS011;1427;48.510;9.060;2024-01-07T15:44:28;46.27;;;3.27;;
2838;SDS011;1427;48.510;9.060;2024-01-07T15:47:00;58.30;;;6.38;;
2838;SDS011;1427;48.510;9.060;2024-01-07T15:49:35;48.57;;;4.30;;
2838;SDS011;1427;48.510;9.060;2024-01-07T15:52:14;44.70;;;2.13;;
2838;SDS011;1427;48.510;9.060;2024-01-07T15:54:50;44.60;;;1.73;;